createdAt,value
2022-08-17T00:02:25.857Z,83.07
2022-08-17T00:04:54.242Z,82.70
2022-08-17T00:07:21.636Z,82.93
2022-08-17T00:09:48.756Z,82.74
2022-08-17T00:12:42.248Z,82.46
2022-08-17T00:15:05.170Z,82.60
2022-08-17T00:17:32.309Z,82.52
2022-08-17T00:20:00.509Z,82.59
2022-08-17T00:22:32.001Z,82.58
2022-08-17T00:25:07.484Z,82.69
2022-08-17T00:27:35.163Z,82.83
2022-08-17T00:30:02.295Z,82.84
2022-08-17T00:33:15.123Z,82.57
2022-08-17T00:35:19.595Z,82.35
2022-08-17T00:37:46.575Z,82.51
2022-08-17T00:40:15.455Z,82.55
2022-08-17T00:42:44.340Z,82.61
2022-08-17T00:45:15.022Z,82.45
2022-08-17T00:47:44.256Z,82.64
2022-08-17T00:50:14.671Z,82.31
2022-08-17T00:52:51.668Z,82.09
2022-08-17T00:55:20.019Z,82.08
2022-08-17T00:57:55.076Z,81.83
2022-08-17T01:00:30.004Z,81.17
2022-08-17T01:03:11.059Z,81.63
2022-08-17T01:05:42.152Z,82.04
2022-08-17T01:08:13.307Z,82.03
2022-08-17T01:10:57.110Z,82.17
2022-08-17T01:13:40.423Z,81.88
2022-08-17T01:16:12.501Z,81.98
2022-08-17T01:18:40.073Z,82.38
2022-08-17T01:21:14.667Z,82.38
2022-08-17T01:23:42.925Z,82.04
2022-08-17T01:26:10.090Z,82.07
2022-08-17T01:28:55.058Z,82.41
2022-08-17T01:31:24.498Z,82.79
2022-08-17T01:33:51.866Z,83.33
2022-08-17T01:36:19.062Z,83.09
2022-08-17T01:38:46.236Z,82.56
2022-08-17T01:41:16.616Z,82.22
2022-08-17T01:43:54.756Z,82.26
2022-08-17T01:46:27.077Z,82.13
2022-08-17T01:48:56.495Z,82.19
2022-08-17T01:51:29.515Z,82.06
2022-08-17T01:54:00.336Z,82.76
2022-08-17T01:56:30.656Z,82.68
2022-08-17T01:58:57.947Z,82.72
2022-08-17T02:01:29.071Z,82.55
2022-08-17T02:04:00.560Z,82.59
2022-08-17T02:06:31.594Z,82.73
2022-08-17T02:09:16.806Z,82.34
2022-08-17T02:11:44.849Z,82.88
2022-08-17T02:14:13.781Z,83.00
2022-08-17T02:16:42.477Z,83.14
2022-08-17T02:19:13.969Z,83.12
2022-08-17T02:21:43.441Z,83.36
2022-08-17T02:24:15.766Z,83.64
2022-08-17T02:26:43.004Z,83.57
2022-08-17T02:29:10.158Z,83.23
2022-08-17T02:31:38.016Z,82.77
2022-08-17T02:34:06.399Z,82.69
2022-08-17T02:36:34.658Z,83.01
2022-08-17T02:39:07.807Z,83.29
2022-08-17T02:41:35.645Z,83.17
2022-08-17T02:44:03.383Z,83.00
2022-08-17T02:46:31.234Z,82.77
2022-08-17T02:48:59.208Z,82.95
2022-08-17T02:51:27.165Z,83.03
2022-08-17T02:54:35.778Z,83.16
2022-08-17T02:56:41.842Z,83.09
2022-08-17T02:59:09.045Z,83.47
2022-08-17T03:01:36.160Z,83.02
2022-08-17T03:04:03.455Z,82.87
2022-08-17T03:06:31.974Z,82.79
2022-08-17T03:08:59.267Z,82.51
2022-08-17T03:11:26.436Z,82.61
2022-08-17T03:13:53.783Z,82.89
2022-08-17T03:16:21.026Z,82.98
2022-08-17T03:18:48.765Z,83.42
2022-08-17T03:21:15.858Z,83.51
2022-08-17T03:23:43.077Z,83.32
2022-08-17T03:26:15.263Z,83.12
2022-08-17T03:28:43.099Z,82.99
2022-08-17T03:31:10.276Z,82.78
2022-08-17T03:33:37.477Z,82.76
2022-08-17T03:36:04.896Z,83.08
2022-08-17T03:38:39.245Z,83.50
2022-08-17T03:41:07.102Z,83.56
2022-08-17T03:43:35.042Z,83.20
2022-08-17T03:46:34.423Z,82.75
2022-08-17T03:49:22.062Z,82.37
2022-08-17T03:52:07.757Z,82.60
2022-08-17T03:54:53.701Z,82.69
2022-08-17T03:57:21.287Z,82.91
2022-08-17T03:59:48.538Z,83.03
2022-08-17T04:02:36.219Z,83.29
2022-08-17T04:05:03.547Z,82.79
2022-08-17T04:07:32.060Z,83.08
2022-08-17T04:09:59.792Z,83.30
2022-08-17T04:12:31.242Z,83.12
2022-08-17T04:14:58.979Z,82.85
2022-08-17T04:17:27.895Z,83.04
2022-08-17T04:19:55.932Z,83.02
2022-08-17T04:22:31.851Z,82.63
2022-08-17T04:25:32.479Z,83.21
2022-08-17T04:28:01.162Z,82.96
2022-08-17T04:30:32.276Z,83.00
2022-08-17T04:33:06.118Z,83.31
2022-08-17T04:35:39.187Z,83.82
2022-08-17T04:38:08.204Z,83.80
2022-08-17T04:40:54.415Z,83.76
2022-08-17T04:43:23.697Z,83.74
2022-08-17T04:45:59.546Z,83.81
2022-08-17T04:48:36.617Z,83.61
2022-08-17T04:51:17.318Z,83.64
2022-08-17T04:53:53.891Z,83.80
2022-08-17T04:56:23.586Z,83.92
2022-08-17T04:58:52.429Z,83.97
2022-08-17T05:01:24.042Z,84.17
2022-08-17T05:03:59.159Z,84.06
2022-08-17T05:06:27.701Z,84.25
2022-08-17T05:08:55.866Z,84.51
2022-08-17T05:11:24.094Z,84.30
2022-08-17T05:13:51.277Z,84.55
2022-08-17T05:16:20.138Z,84.72
2022-08-17T05:18:48.125Z,84.84
2022-08-17T05:21:16.242Z,84.32
2022-08-17T05:23:44.266Z,84.67
2022-08-17T05:26:26.206Z,84.74
2022-08-17T05:28:57.293Z,84.64
2022-08-17T05:31:29.665Z,84.56
2022-08-17T05:33:57.206Z,84.86
2022-08-17T05:36:42.048Z,85.19
2022-08-17T05:39:16.413Z,85.29
2022-08-17T05:41:48.564Z,85.54
2022-08-17T05:44:16.459Z,85.97
2022-08-17T05:46:49.210Z,85.94
2022-08-17T05:49:22.100Z,86.51
2022-08-17T05:52:42.318Z,87.08
2022-08-17T05:55:16.177Z,86.43
2022-08-17T05:58:07.834Z,85.27
2022-08-17T06:01:08.141Z,84.62
2022-08-17T06:03:40.990Z,84.64
2022-08-17T06:06:31.402Z,84.28
2022-08-17T06:09:34.490Z,83.83
2022-08-17T06:12:46.177Z,83.39
2022-08-17T06:15:34.194Z,83.19
2022-08-17T06:18:13.722Z,83.71
2022-08-17T06:20:49.578Z,83.14
2022-08-17T06:23:27.410Z,82.25
2022-08-17T06:26:00.281Z,81.79
2022-08-17T06:28:44.044Z,82.25
2022-08-17T06:31:22.419Z,83.64
2022-08-17T06:33:50.497Z,83.56
2022-08-17T06:36:33.211Z,84.31
2022-08-17T06:39:04.909Z,82.76
2022-08-17T06:41:56.378Z,83.04
2022-08-17T06:44:50.087Z,82.59
2022-08-17T06:47:35.620Z,81.78
2022-08-17T06:50:14.892Z,81.54
2022-08-17T06:53:00.153Z,81.54
2022-08-17T06:55:38.243Z,81.07
2022-08-17T06:58:15.631Z,79.74
2022-08-17T07:00:47.496Z,79.67
2022-08-17T07:03:37.881Z,78.38
2022-08-17T07:06:29.646Z,79.08
2022-08-17T07:09:09.520Z,77.00
2022-08-17T07:11:58.874Z,74.52
2022-08-17T07:14:48.676Z,77.25
2022-08-17T07:17:18.612Z,76.75
2022-08-17T07:19:49.341Z,76.83
2022-08-17T07:22:57.530Z,75.80
2022-08-17T07:25:30.787Z,72.71
2022-08-17T07:28:07.274Z,68.39
2022-08-17T07:30:46.992Z,68.88
2022-08-17T07:33:20.472Z,68.97
2022-08-17T07:35:48.593Z,69.27
2022-08-17T07:38:24.661Z,67.12
2022-08-17T07:41:02.976Z,65.23
2022-08-17T07:43:39.415Z,65.22
2022-08-17T07:46:34.206Z,62.00
2022-08-17T07:49:03.332Z,64.51
2022-08-17T07:51:32.233Z,62.00
2022-08-17T07:54:14.546Z,62.63
2022-08-17T07:56:44.760Z,62.12
2022-08-17T07:59:23.307Z,61.56
2022-08-17T08:01:57.710Z,61.47
2022-08-17T08:04:59.825Z,61.03
2022-08-17T08:07:38.339Z,60.08
2022-08-17T08:10:08.263Z,59.34
2022-08-17T08:12:38.315Z,58.55
2022-08-17T08:15:19.412Z,59.07
2022-08-17T08:17:54.578Z,58.94
2022-08-17T08:20:52.563Z,58.92
2022-08-17T08:23:52.967Z,56.42
2022-08-17T08:26:36.218Z,56.04
2022-08-17T08:29:41.568Z,57.03
2022-08-17T08:32:26.923Z,56.08
2022-08-17T08:35:14.296Z,54.41
2022-08-17T08:37:59.818Z,52.81
2022-08-17T08:40:48.018Z,53.19
2022-08-17T08:43:23.459Z,52.73
2022-08-17T08:46:19.721Z,53.82
2022-08-17T08:49:45.032Z,51.58
2022-08-17T08:52:48.368Z,50.45
2022-08-17T08:55:44.740Z,50.33
2022-08-17T08:58:31.510Z,50.89
2022-08-17T09:01:19.812Z,49.90
2022-08-17T09:04:24.048Z,49.38
2022-08-17T09:06:58.102Z,49.54
2022-08-17T09:09:45.508Z,49.41
2022-08-17T09:12:26.093Z,48.69
2022-08-17T09:15:27.938Z,47.90
2022-08-17T09:19:00.223Z,47.82
2022-08-17T09:21:21.763Z,45.35
2022-08-17T09:24:04.902Z,44.04
2022-08-17T09:26:54.138Z,44.82
2022-08-17T09:29:25.727Z,45.41
2022-08-17T09:32:03.909Z,45.13
2022-08-17T09:34:38.855Z,45.61
2022-08-17T09:37:16.583Z,46.66
2022-08-17T09:39:53.597Z,47.08
2022-08-17T09:42:28.544Z,46.69
2022-08-17T09:45:21.576Z,45.51
2022-08-17T09:47:52.265Z,45.07
2022-08-17T09:51:03.633Z,45.49
2022-08-17T09:53:12.571Z,45.04
2022-08-17T09:56:03.350Z,45.09
2022-08-17T09:58:40.747Z,45.57
2022-08-17T10:01:36.578Z,43.77
2022-08-17T10:04:30.856Z,44.53
2022-08-17T10:07:04.613Z,43.91
2022-08-17T10:09:42.837Z,44.43
2022-08-17T10:12:37.061Z,43.32
2022-08-17T10:15:25.476Z,44.74
2022-08-17T10:18:08.721Z,43.37
2022-08-17T10:21:19.147Z,43.08
2022-08-17T10:24:09.826Z,42.69
2022-08-17T10:26:56.150Z,42.08
2022-08-17T10:29:28.984Z,42.89
2022-08-17T10:32:04.875Z,42.80
2022-08-17T10:34:52.523Z,43.39
2022-08-17T10:37:48.683Z,42.76
2022-08-17T10:40:28.087Z,42.48
2022-08-17T10:43:14.819Z,41.87
2022-08-17T10:46:10.396Z,42.31
2022-08-17T10:49:19.030Z,41.92
2022-08-17T10:51:53.705Z,41.65
2022-08-17T10:54:35.717Z,40.61
2022-08-17T10:57:02.983Z,41.24
2022-08-17T10:59:36.185Z,40.67
2022-08-17T11:02:15.366Z,39.78
2022-08-17T11:05:14.862Z,40.76
2022-08-17T11:08:11.996Z,40.37
2022-08-17T11:10:53.879Z,40.93
2022-08-17T11:13:23.558Z,39.92
2022-08-17T11:16:09.135Z,40.12
2022-08-17T11:18:48.788Z,40.11
2022-08-17T11:21:42.537Z,39.46
2022-08-17T11:24:43.376Z,40.62
2022-08-17T11:27:30.170Z,40.12
2022-08-17T11:30:38.687Z,40.95
2022-08-17T11:33:29.128Z,39.76
2022-08-17T11:36:38.063Z,40.51
2022-08-17T11:39:15.135Z,41.01
2022-08-17T11:42:13.021Z,39.40
2022-08-17T11:45:01.353Z,39.74
2022-08-17T11:48:27.896Z,39.59
2022-08-17T11:51:28.627Z,40.65
2022-08-17T11:54:21.560Z,40.83
2022-08-17T11:56:51.456Z,39.30
2022-08-17T11:59:33.651Z,38.81
2022-08-17T12:02:03.789Z,38.70
2022-08-17T12:04:33.541Z,38.06
2022-08-17T12:07:20.835Z,38.02
2022-08-17T12:09:51.166Z,38.42
2022-08-17T12:12:22.304Z,38.58
2022-08-17T12:15:11.433Z,38.50
2022-08-17T12:17:40.691Z,38.95
2022-08-17T12:20:14.706Z,39.00
2022-08-17T12:23:16.999Z,38.91
2022-08-17T12:25:57.207Z,38.66
2022-08-17T12:28:47.193Z,38.95
2022-08-17T12:31:22.241Z,38.95
2022-08-17T12:33:51.967Z,37.85
2022-08-17T12:36:26.667Z,36.89
2022-08-17T12:39:14.302Z,37.30
2022-08-17T12:41:48.197Z,37.89
2022-08-17T12:44:20.787Z,36.52
2022-08-17T12:47:02.159Z,36.86
2022-08-17T12:49:33.346Z,36.55
2022-08-17T12:52:13.786Z,37.48
2022-08-17T12:54:47.927Z,38.19
2022-08-17T12:57:24.786Z,39.37
2022-08-17T12:59:57.433Z,38.29
2022-08-17T13:02:42.455Z,38.54
2022-08-17T13:05:20.533Z,39.10
2022-08-17T13:07:47.926Z,39.11
2022-08-17T13:10:33.152Z,38.69
2022-08-17T13:13:17.810Z,38.80
2022-08-17T13:16:03.721Z,38.90
2022-08-17T13:18:39.167Z,39.67
2022-08-17T13:21:12.812Z,38.59
2022-08-17T13:23:39.951Z,39.00
2022-08-17T13:26:17.966Z,38.68
2022-08-17T13:28:51.950Z,37.92
2022-08-17T13:31:21.841Z,37.78
2022-08-17T13:33:48.875Z,38.35
2022-08-17T13:36:32.249Z,38.03
2022-08-17T13:39:19.191Z,37.70
2022-08-17T13:41:48.705Z,37.71
2022-08-17T13:44:39.461Z,38.20
2022-08-17T13:47:17.721Z,37.73
2022-08-17T13:49:48.667Z,38.05
2022-08-17T13:52:37.955Z,38.53
2022-08-17T13:55:17.678Z,38.46
2022-08-17T13:57:48.416Z,39.70
2022-08-17T14:00:33.059Z,40.45
2022-08-17T14:03:02.262Z,39.89
2022-08-17T14:05:31.384Z,39.41
2022-08-17T14:08:06.412Z,39.41
2022-08-17T14:10:36.686Z,40.01
2022-08-17T14:13:05.748Z,39.61
2022-08-17T14:15:55.063Z,39.72
2022-08-17T14:18:41.999Z,39.21
2022-08-17T14:21:09.639Z,39.00
2022-08-17T14:23:37.852Z,39.41
2022-08-17T14:26:05.568Z,39.33
2022-08-17T14:28:32.743Z,39.45
2022-08-17T14:31:03.109Z,39.70
2022-08-17T14:33:30.225Z,39.82
2022-08-17T14:35:57.820Z,40.32
2022-08-17T14:38:25.074Z,39.78
2022-08-17T14:40:52.593Z,39.27
2022-08-17T14:43:21.049Z,41.06
2022-08-17T14:45:48.149Z,40.51
2022-08-17T14:48:16.103Z,40.60
2022-08-17T14:50:44.501Z,39.90
2022-08-17T14:53:14.590Z,40.40
2022-08-17T14:55:41.688Z,40.22
2022-08-17T14:58:09.339Z,40.56
2022-08-17T15:00:37.005Z,40.69
2022-08-17T15:03:05.418Z,40.60
2022-08-17T15:05:36.801Z,41.07
2022-08-17T15:08:07.795Z,41.58
2022-08-17T15:10:35.579Z,41.66
2022-08-17T15:13:02.726Z,42.19
2022-08-17T15:15:30.499Z,41.41
2022-08-17T15:17:58.818Z,41.22
2022-08-17T15:20:29.000Z,41.50
2022-08-17T15:22:57.640Z,42.15
2022-08-17T15:25:27.720Z,41.55
2022-08-17T15:27:56.137Z,40.73
2022-08-17T15:30:25.900Z,40.60
2022-08-17T15:32:55.378Z,40.71
2022-08-17T15:35:29.077Z,40.72
2022-08-17T15:37:58.480Z,40.20
2022-08-17T15:40:25.630Z,40.58
2022-08-17T15:42:53.171Z,39.86
2022-08-17T15:45:24.732Z,40.77
2022-08-17T15:47:53.703Z,41.62
2022-08-17T15:50:20.801Z,42.38
2022-08-17T15:52:53.910Z,41.61
2022-08-17T15:55:24.192Z,41.76
2022-08-17T15:57:52.432Z,41.70
2022-08-17T16:00:20.139Z,41.80
2022-08-17T16:03:45.711Z,41.75
2022-08-17T16:05:35.985Z,42.86
2022-08-17T16:08:04.526Z,43.28
2022-08-17T16:10:35.271Z,43.17
2022-08-17T16:13:04.564Z,43.78
2022-08-17T16:15:32.166Z,44.07
2022-08-17T16:17:59.836Z,44.51
2022-08-17T16:20:27.805Z,45.01
2022-08-17T16:22:55.443Z,45.42
2022-08-17T16:25:47.218Z,45.86
2022-08-17T16:28:16.061Z,45.78
2022-08-17T16:30:43.580Z,46.83
2022-08-17T16:33:12.110Z,46.28
2022-08-17T16:35:39.718Z,46.57
2022-08-17T16:38:07.491Z,46.85
2022-08-17T16:40:36.418Z,46.76
2022-08-17T16:43:10.770Z,46.85
2022-08-17T16:45:40.848Z,47.11
2022-08-17T16:48:09.792Z,47.50
2022-08-17T16:50:37.550Z,48.00
2022-08-17T16:53:10.878Z,47.89
2022-08-17T16:55:38.458Z,48.10
2022-08-17T16:58:06.915Z,48.31
2022-08-17T17:00:34.486Z,48.36
2022-08-17T17:03:31.551Z,49.23
2022-08-17T17:06:16.265Z,48.81
2022-08-17T17:08:56.299Z,50.28
2022-08-17T17:11:43.092Z,49.09
2022-08-17T17:14:16.123Z,49.25
2022-08-17T17:17:23.589Z,51.04
2022-08-17T17:20:03.024Z,52.18
2022-08-17T17:22:45.299Z,51.44
2022-08-17T17:25:25.493Z,53.73
2022-08-17T17:28:25.014Z,56.62
2022-08-17T17:31:01.916Z,55.69
2022-08-17T17:33:55.968Z,55.38
2022-08-17T17:36:25.681Z,54.45
2022-08-17T17:39:00.389Z,52.67
2022-08-17T17:41:37.360Z,52.52
2022-08-17T17:44:12.016Z,51.63
2022-08-17T17:46:44.668Z,54.16
2022-08-17T17:49:14.456Z,53.95
2022-08-17T17:52:11.137Z,54.64
2022-08-17T17:55:01.130Z,57.91
2022-08-17T17:57:54.709Z,58.28
2022-08-17T18:00:23.798Z,57.74
2022-08-17T18:03:15.756Z,56.60
2022-08-17T18:06:21.473Z,56.69
2022-08-17T18:08:54.963Z,57.16
2022-08-17T18:11:25.278Z,56.35
2022-08-17T18:14:21.545Z,56.78
2022-08-17T18:16:55.954Z,55.73
2022-08-17T18:19:25.706Z,54.85
2022-08-17T18:22:01.711Z,54.59
2022-08-17T18:24:35.168Z,54.18
2022-08-17T18:27:08.509Z,53.32
2022-08-17T18:29:43.011Z,52.76
2022-08-17T18:32:28.397Z,52.33
2022-08-17T18:34:59.703Z,52.52
2022-08-17T18:37:52.138Z,52.63
2022-08-17T18:40:19.746Z,52.65
2022-08-17T18:43:13.160Z,53.10
2022-08-17T18:45:47.501Z,53.51
2022-08-17T18:48:19.982Z,53.65
2022-08-17T18:50:47.481Z,54.04
2022-08-17T18:53:33.447Z,54.52
2022-08-17T18:56:22.199Z,54.91
2022-08-17T18:59:22.831Z,55.39
2022-08-17T19:02:34.623Z,55.68
2022-08-17T19:05:16.271Z,56.43
2022-08-17T19:07:46.300Z,56.62
2022-08-17T19:10:32.690Z,57.11
2022-08-17T19:13:31.552Z,58.02
2022-08-17T19:16:15.731Z,58.71
2022-08-17T19:19:00.430Z,58.83
2022-08-17T19:21:34.888Z,58.94
2022-08-17T19:24:21.391Z,59.82
2022-08-17T19:27:08.741Z,59.58
2022-08-17T19:29:53.985Z,60.12
2022-08-17T19:32:27.426Z,60.26
2022-08-17T19:34:56.278Z,60.83
2022-08-17T19:38:00.867Z,61.68
2022-08-17T19:40:53.766Z,61.80
2022-08-17T19:43:43.699Z,62.09
2022-08-17T19:46:29.681Z,62.33
2022-08-17T19:49:40.807Z,62.72
2022-08-17T19:52:43.310Z,62.81
2022-08-17T19:55:38.679Z,63.06
2022-08-17T19:58:20.034Z,63.07
2022-08-17T20:00:51.599Z,63.16
2022-08-17T20:03:51.293Z,63.43
2022-08-17T20:06:21.160Z,63.26
2022-08-17T20:09:02.693Z,63.75
2022-08-17T20:11:47.635Z,63.91
2022-08-17T20:14:20.646Z,63.70
2022-08-17T20:16:47.967Z,63.87
2022-08-17T20:19:21.248Z,64.17
2022-08-17T20:22:00.379Z,64.63
2022-08-17T20:24:35.638Z,64.70
2022-08-17T20:27:33.769Z,65.22
2022-08-17T20:30:35.057Z,65.55
2022-08-17T20:33:02.876Z,65.14
2022-08-17T20:35:32.921Z,65.38
2022-08-17T20:38:12.970Z,66.12
2022-08-17T20:41:03.289Z,66.51
2022-08-17T20:43:33.667Z,66.40
2022-08-17T20:46:32.285Z,67.11
2022-08-17T20:49:22.222Z,67.41
2022-08-17T20:52:10.877Z,68.21
2022-08-17T20:54:51.849Z,68.56
2022-08-17T20:57:36.902Z,70.06
2022-08-17T21:00:15.544Z,70.28
2022-08-17T21:02:45.735Z,70.88
2022-08-17T21:05:30.386Z,71.67
2022-08-17T21:08:01.338Z,71.11
2022-08-17T21:10:35.846Z,71.28
2022-08-17T21:13:13.933Z,71.60
2022-08-17T21:15:42.627Z,72.36
2022-08-17T21:18:18.721Z,71.98
2022-08-17T21:21:28.324Z,72.19
2022-08-17T21:24:01.079Z,72.06
2022-08-17T21:26:50.320Z,72.12
2022-08-17T21:29:31.779Z,72.34
2022-08-17T21:31:59.746Z,72.61
2022-08-17T21:34:39.157Z,73.03
2022-08-17T21:37:23.935Z,72.83
2022-08-17T21:40:01.645Z,72.62
2022-08-17T21:42:33.657Z,72.43
2022-08-17T21:45:19.255Z,72.82
2022-08-17T21:48:21.068Z,72.75
2022-08-17T21:51:03.912Z,73.08
2022-08-17T21:53:42.889Z,73.74
2022-08-17T21:56:12.965Z,73.15
2022-08-17T21:58:48.317Z,73.13
2022-08-17T22:01:24.024Z,73.04
2022-08-17T22:04:03.544Z,71.96
2022-08-17T22:06:40.229Z,71.64
2022-08-17T22:09:10.091Z,71.21
2022-08-17T22:12:00.418Z,70.78
2022-08-17T22:14:52.821Z,70.23
2022-08-17T22:17:30.340Z,70.33
2022-08-17T22:20:19.420Z,70.42
2022-08-17T22:23:05.172Z,70.14
2022-08-17T22:25:36.131Z,70.34
2022-08-17T22:28:10.442Z,70.34
2022-08-17T22:30:40.833Z,70.40
2022-08-17T22:33:39.857Z,70.36
2022-08-17T22:36:32.865Z,70.37
2022-08-17T22:39:23.262Z,70.72
2022-08-17T22:41:52.352Z,71.01
2022-08-17T22:44:50.329Z,71.29
2022-08-17T22:47:18.990Z,71.39
2022-08-17T22:49:54.027Z,71.94
2022-08-17T22:52:32.541Z,72.53
2022-08-17T22:55:34.714Z,72.42
2022-08-17T22:58:28.195Z,72.61
2022-08-17T23:00:56.043Z,72.59
2022-08-17T23:03:26.450Z,72.74
2022-08-17T23:06:11.403Z,73.00
2022-08-17T23:08:58.217Z,73.00
2022-08-17T23:11:36.811Z,72.96
2022-08-17T23:14:19.365Z,73.23
2022-08-17T23:16:47.984Z,73.54
2022-08-17T23:19:19.648Z,73.58
2022-08-17T23:21:47.633Z,73.79
2022-08-17T23:24:21.783Z,73.76
2022-08-17T23:26:49.341Z,73.81
2022-08-17T23:29:17.022Z,73.94
2022-08-17T23:31:44.278Z,74.38
2022-08-17T23:34:14.836Z,74.71
2022-08-17T23:36:42.378Z,74.72
2022-08-17T23:39:09.562Z,74.97
2022-08-17T23:41:40.268Z,75.11
2022-08-17T23:44:07.645Z,75.39
2022-08-17T23:46:35.149Z,75.33
2022-08-17T23:49:03.428Z,75.27
2022-08-17T23:51:42.627Z,75.50
2022-08-17T23:54:19.886Z,75.56
2022-08-17T23:56:47.170Z,75.56
2022-08-17T23:59:19.347Z,75.88
